Time;durP1;ratioP1;P1;durP2;ratioP2;P2;SDS_P1;SDS_P2;PMS_P1;PMS_P2;Temp;Humidity;BMP_temperature;BMP_pressure;BME280_temperature;BME280_humidity;BME280_pressure;Samples;Min_cycle;Max_cycle;Signal;HPM_P1;HPM_P2
2023/04/25 00:01:06;;;;;;;;;15.00;14.00;;;;;12.04;100.00;98480.31;6274375;20;3533696;-51
2023/04/25 00:03:35;;;;;;;;;12.00;12.00;;;;;12.01;100.00;98476.06;6321215;20;2664862;-50
2023/04/25 00:06:03;;;;;;;;;13.50;13.00;;;;;12.00;100.00;98474.31;6278439;20;2800386;-51
2023/04/25 00:08:32;;;;;;;;;15.67;13.33;;;;;12.07;100.00;98475.50;6280139;20;3514025;-51
2023/04/25 00:11:01;;;;;;;;;11.00;11.00;;;;;12.11;100.00;98470.69;6311772;20;3522220;-50
2023/04/25 00:13:30;;;;;;;;;13.00;12.67;;;;;12.06;100.00;98468.44;6309601;20;2809712;-52
2023/04/25 00:15:59;;;;;;;;;11.00;11.00;;;;;12.08;100.00;98460.22;6310185;20;2791040;-49
2023/04/25 00:18:29;;;;;;;;;11.60;11.60;;;;;12.10;100.00;98462.78;6333405;20;2803440;-50
2023/04/25 00:20:57;;;;;;;;;12.50;11.00;;;;;11.99;100.00;98463.72;6276687;20;2788979;-52
2023/04/25 00:23:29;;;;;;;;;11.00;11.00;;;;;11.91;100.00;98461.69;6278317;20;2801411;-50
2023/04/25 00:25:58;;;;;;;;;13.00;11.40;;;;;11.99;100.00;98455.66;6331479;20;2793420;-55
2023/04/25 00:28:27;;;;;;;;;10.67;10.67;;;;;12.05;100.00;98455.09;6281988;20;2789966;-53
2023/04/25 00:30:55;;;;;;;;;14.00;12.00;;;;;12.09;100.00;98451.16;6308618;20;2785696;-52
2023/04/25 00:33:23;;;;;;;;;12.00;11.00;;;;;12.06;100.00;98452.28;6280387;20;2794034;-49
2023/04/25 00:35:51;;;;;;;;;10.33;10.33;;;;;11.97;100.00;98447.69;6278935;20;2781519;-51
2023/04/25 00:38:19;;;;;;;;;9.00;9.00;;;;;11.99;100.00;98445.72;6310149;20;2748226;-54
2023/04/25 00:40:47;;;;;;;;;11.00;11.00;;;;;12.01;100.00;98438.38;6281500;20;2792036;-51
2023/04/25 00:43:15;;;;;;;;;13.00;12.00;;;;;12.02;100.00;98442.78;6285243;20;2805449;-50
2023/04/25 00:45:51;;;;;;;;;9.20;9.20;;;;;11.94;100.00;98441.75;6304090;20;2773205;-52
2023/04/25 00:48:22;;;;;;;;;11.50;11.50;;;;;11.93;100.00;98435.53;6277697;20;2794182;-52
2023/04/25 00:50:59;;;;;;;;;11.00;9.00;;;;;11.91;100.00;98432.09;6284933;20;2773182;-54
2023/04/25 00:53:29;;;;;;;;;14.50;12.00;;;;;11.89;100.00;98436.75;6278654;20;2796151;-50
2023/04/25 00:55:57;;;;;;;;;11.00;11.00;;;;;11.93;100.00;98430.13;6275246;20;2787857;-53
2023/04/25 00:58:26;;;;;;;;;9.80;9.60;;;;;11.82;100.00;98424.78;6306487;20;2792019;-54
2023/04/25 01:00:57;;;;;;;;;11.67;10.00;;;;;11.93;100.00;98423.88;6281120;20;2792092;-51
2023/04/25 01:03:28;;;;;;;;;11.00;11.00;;;;;11.99;100.00;98424.22;6313487;20;2792052;-51
2023/04/25 01:05:58;;;;;;;;;11.60;11.60;;;;;12.02;100.00;98413.19;6336637;20;2789908;-53
2023/04/25 01:08:27;;;;;;;;;11.00;11.00;;;;;11.97;100.00;98423.50;6284989;20;2786789;-51
2023/04/25 01:10:56;;;;;;;;;12.80;11.20;;;;;11.83;100.00;98416.59;6338879;20;2780524;-51
2023/04/25 01:13:25;;;;;;;;;10.00;8.33;;;;;11.81;100.00;98413.19;6282187;20;2775436;-50
2023/04/25 01:15:55;;;;;;;;;11.60;11.60;;;;;11.80;100.00;98413.34;6337286;20;2788836;-50
2023/04/25 01:18:23;;;;;;;;;11.50;10.50;;;;;11.89;100.00;98411.72;6290156;20;2791987;-54
2023/04/25 01:20:55;;;;;;;;;12.00;10.00;;;;;11.89;100.00;98412.56;6278812;20;2789969;-50
2023/04/25 01:23:27;;;;;;;;;10.14;9.71;;;;;11.95;100.00;98409.31;6329385;20;1806515;-51
2023/04/25 01:25:55;;;;;;;;;12.00;12.00;;;;;11.84;100.00;98420.13;6311809;20;2796063;-55
2023/04/25 01:28:26;;;;;;;;;10.50;10.50;;;;;11.96;100.00;98411.03;6334113;20;2695065;-52
2023/04/25 01:30:57;;;;;;;;;8.80;8.60;;;;;11.99;100.00;98418.00;6308179;20;2752342;-54
2023/04/25 01:33:25;;;;;;;;;8.50;8.50;;;;;12.04;100.00;98408.53;6317158;20;2752333;-51
2023/04/25 01:35:53;;;;;;;;;8.00;8.00;;;;;11.87;100.00;98409.13;6284192;20;2749249;-51
2023/04/25 01:38:23;;;;;;;;;11.00;11.00;;;;;11.89;100.00;98403.63;6309419;20;2792000;-54
2023/04/25 01:40:52;;;;;;;;;9.00;9.00;;;;;11.90;100.00;98403.53;6288107;20;2754450;-52
2023/04/25 01:43:22;;;;;;;;;13.80;11.00;;;;;11.94;100.00;98404.94;6305011;20;2790922;-52
2023/04/25 01:45:52;;;;;;;;;13.80;12.60;;;;;11.92;100.00;98403.38;6306796;20;2792989;-51
2023/04/25 01:48:20;;;;;;;;;8.00;8.00;;;;;11.93;100.00;98395.16;6291742;20;2754469;-54
2023/04/25 01:50:49;;;;;;;;;8.00;8.00;;;;;11.93;100.00;98396.97;6306616;20;2764839;-52
2023/04/25 01:53:20;;;;;;;;;8.50;8.50;;;;;11.86;100.00;98404.75;6326623;20;1820515;-55
2023/04/25 01:55:50;;;;;;;;;10.80;9.40;;;;;11.87;100.00;98401.06;6306643;20;2758580;-55
2023/04/25 01:58:17;;;;;;;;;7.00;7.00;;;;;11.83;100.00;98400.47;6285362;20;2746168;-52
2023/04/25 02:00:46;;;;;;;;;8.00;8.00;;;;;11.83;100.00;98402.31;6285619;20;2737753;-50
2023/04/25 02:03:15;;;;;;;;;10.80;9.20;;;;;11.85;100.00;98411.09;6306341;20;2752366;-49
2023/04/25 02:05:43;;;;;;;;;8.00;8.00;;;;;11.85;100.00;98411.09;6314781;20;2754448;-50
2023/04/25 02:08:11;;;;;;;;;7.00;7.00;;;;;11.82;100.00;98405.97;6285243;20;2728421;-54
2023/04/25 02:10:39;;;;;;;;;7.00;7.00;;;;;11.76;100.00;98406.50;6281554;20;2740922;-56
2023/04/25 02:13:07;;;;;;;;;6.50;6.50;;;;;11.80;100.00;98407.97;6282841;20;2738910;-55
2023/04/25 02:15:35;;;;;;;;;6.00;6.00;;;;;11.86;100.00;98410.13;6281123;20;2732549;-56
2023/04/25 02:18:03;;;;;;;;;8.50;6.00;;;;;11.78;100.00;98408.09;6282136;20;2747287;-55
2023/04/25 02:20:35;;;;;;;;;6.86;6.86;;;;;11.84;99.95;98409.38;6320153;20;1794043;-53
2023/04/25 02:23:03;;;;;;;;;7.00;7.00;;;;;11.78;100.00;98407.22;6311937;20;2738823;-53
2023/04/25 02:25:31;;;;;;;;;6.00;6.00;;;;;11.70;100.00;98409.75;6279113;20;2744079;-55
2023/04/25 02:27:59;;;;;;;;;7.00;7.00;;;;;11.66;100.00;98406.44;6287283;20;2735765;-54
2023/04/25 02:30:27;;;;;;;;;7.00;7.00;;;;;11.61;100.00;98414.94;6280742;20;2735723;-52
2023/04/25 02:32:55;;;;;;;;;6.50;6.50;;;;;11.70;100.00;98415.13;6284417;20;2740877;-52
2023/04/25 02:35:23;;;;;;;;;7.50;7.50;;;;;11.70;100.00;98409.75;6282218;20;2734727;-56
2023/04/25 02:37:54;;;;;;;;;9.80;7.40;;;;;11.71;100.00;98408.75;6326310;20;2475309;-52
2023/04/25 02:40:26;;;;;;;;;9.00;7.43;;;;;11.71;100.00;98408.75;6356892;20;1795481;-53
2023/04/25 02:42:53;;;;;;;;;9.00;8.00;;;;;11.78;100.00;98409.94;6317180;20;2750279;-55
2023/04/25 02:45:21;;;;;;;;;7.50;7.50;;;;;11.67;100.00;98407.31;6284051;20;2746111;-51
2023/04/25 02:47:49;;;;;;;;;8.50;8.50;;;;;11.82;100.00;98414.03;6285261;20;2750410;-51
2023/04/25 02:50:18;;;;;;;;;8.50;8.50;;;;;11.77;99.85;98414.47;6289847;20;2743088;-49
2023/04/25 02:52:46;;;;;;;;;9.00;9.00;;;;;11.73;99.90;98406.78;6284229;20;2750649;-54
2023/04/25 02:55:14;;;;;;;;;11.00;10.00;;;;;11.63;100.00;98402.19;6280232;20;2786750;-54
2023/04/25 02:57:43;;;;;;;;;11.00;11.00;;;;;11.76;99.71;98401.97;6280725;20;2792087;-52
2023/04/25 03:00:14;;;;;;;;;9.00;8.50;;;;;11.67;100.00;98407.31;6309106;20;2753389;-54
2023/04/25 03:02:41;;;;;;;;;9.00;8.50;;;;;11.58;100.00;98401.72;6287412;20;2748236;-52
2023/04/25 03:05:09;;;;;;;;;9.50;9.50;;;;;11.63;99.82;98402.19;6277446;20;2766971;-54
2023/04/25 03:07:39;;;;;;;;;9.67;9.33;;;;;11.60;99.69;98402.47;6283973;20;2760762;-53
2023/04/25 03:10:08;;;;;;;;;8.00;8.00;;;;;11.64;100.00;98395.84;6314380;20;2737781;-52
2023/04/25 03:12:36;;;;;;;;;11.50;10.00;;;;;11.60;99.61;98393.53;6281751;20;2785675;-52
2023/04/25 03:15:05;;;;;;;;;10.50;9.00;;;;;11.60;99.99;98399.78;6281758;20;2761744;-51
2023/04/25 03:17:33;;;;;;;;;9.50;8.00;;;;;11.67;99.28;98393.88;6287697;20;2758612;-51
2023/04/25 03:20:05;;;;;;;;;8.00;8.00;;;;;11.56;99.06;98397.50;6275649;20;2756526;-54
2023/04/25 03:22:32;;;;;;;;;11.00;10.00;;;;;11.56;98.97;98395.66;6280674;20;2786821;-54
2023/04/25 03:25:03;;;;;;;;;11.40;10.60;;;;;11.43;99.96;98386.94;6307531;20;2789857;-53
2023/04/25 03:27:31;;;;;;;;;10.50;10.50;;;;;11.50;99.68;98384.56;6282532;20;2794195;-52
2023/04/25 03:29:59;;;;;;;;;12.00;11.00;;;;;11.46;99.46;98389.38;6280427;20;2790303;-51
2023/04/25 03:32:27;;;;;;;;;13.00;9.00;;;;;11.41;99.63;98386.22;6280487;20;2780499;-51
2023/04/25 03:34:57;;;;;;;;;10.60;9.20;;;;;11.44;99.48;98383.28;6307408;20;2771168;-55
2023/04/25 03:37:25;;;;;;;;;7.00;7.00;;;;;11.38;99.07;98387.34;6280093;20;2742013;-49
2023/04/25 03:39:52;;;;;;;;;8.00;8.00;;;;;11.50;99.16;98381.88;6287620;20;2754513;-55
2023/04/25 03:42:22;;;;;;;;;7.00;7.00;;;;;11.37;99.10;98382.09;6281562;20;2736740;-53
2023/04/25 03:44:51;;;;;;;;;10.00;8.00;;;;;11.31;99.84;98383.47;6281239;20;2768095;-54
2023/04/25 03:47:19;;;;;;;;;9.00;7.00;;;;;11.45;99.03;98382.28;6287458;20;2740985;-54
2023/04/25 03:49:49;;;;;;;;;8.00;8.00;;;;;11.37;99.37;98382.09;6281380;20;2754534;-49
2023/04/25 03:52:17;;;;;;;;;7.00;7.00;;;;;11.28;99.13;98380.19;6284729;20;2728456;-53
2023/04/25 03:54:44;;;;;;;;;6.00;6.00;;;;;11.37;98.30;98384.78;6283149;20;2735764;-56
2023/04/25 03:57:12;;;;;;;;;6.00;6.00;;;;;11.25;97.93;98381.31;6278515;20;2732661;-51
2023/04/25 03:59:40;;;;;;;;;5.00;5.00;;;;;11.28;97.53;98377.50;6284190;20;2736760;-53
2023/04/25 04:02:08;;;;;;;;;7.25;4.50;;;;;11.22;97.23;98389.63;6297656;20;1808885;-52
2023/04/25 04:04:37;;;;;;;;;7.00;7.00;;;;;11.25;97.58;98384.00;6330686;20;1817057;-53
2023/04/25 04:07:05;;;;;;;;;6.50;6.50;;;;;11.25;97.27;98380.47;6314163;20;2741952;-52
2023/04/25 04:09:33;;;;;;;;;4.00;4.00;;;;;11.21;97.28;98383.38;6280956;20;2741960;-55
2023/04/25 04:12:01;;;;;;;;;7.00;7.00;;;;;11.21;97.54;98375.31;6279080;20;2745501;-49
2023/04/25 04:14:29;;;;;;;;;6.50;6.50;;;;;11.15;97.54;98380.38;6282536;20;2745115;-50
2023/04/25 04:16:57;;;;;;;;;5.00;5.00;;;;;11.23;97.65;98379.75;6282116;20;2732676;-52
2023/04/25 04:19:25;;;;;;;;;6.00;6.00;;;;;11.28;97.19;98372.13;6282232;20;2746085;-50
2023/04/25 04:21:53;;;;;;;;;5.50;5.50;;;;;11.24;97.26;98376.91;6279641;20;2739983;-53
2023/04/25 04:24:21;;;;;;;;;5.00;5.00;;;;;11.16;96.93;98376.72;6285271;20;2723201;-49
2023/04/25 04:26:49;;;;;;;;;5.00;5.00;;;;;11.14;96.50;98378.69;6280175;20;2744165;-53
2023/04/25 04:29:20;;;;;;;;;7.00;6.00;;;;;11.20;97.00;98379.00;6279965;20;2739949;-53
2023/04/25 04:31:52;;;;;;;;;5.00;5.00;;;;;11.21;96.88;98375.31;6284920;20;2744083;-49
2023/04/25 04:34:21;;;;;;;;;7.50;7.00;;;;;11.26;96.45;98377.63;6303447;20;1807683;-51
2023/04/25 04:36:49;;;;;;;;;5.50;5.50;;;;;11.09;96.20;98381.75;6317347;20;2735732;-53
2023/04/25 04:39:17;;;;;;;;;6.00;6.00;;;;;11.23;96.30;98377.06;6286698;20;2746178;-50
2023/04/25 04:41:45;;;;;;;;;5.00;5.00;;;;;11.23;95.21;98377.06;6286448;20;2746110;-49
2023/04/25 04:44:13;;;;;;;;;5.50;4.00;;;;;11.18;96.34;98375.59;6289725;20;2736851;-51
2023/04/25 04:46:44;;;;;;;;;4.00;4.00;;;;;11.17;96.77;98371.22;6285464;20;2756530;-49
2023/04/25 04:49:15;;;;;;;;;3.50;2.50;;;;;11.20;95.80;98373.63;6284299;20;2732718;-49
2023/04/25 04:51:44;;;;;;;;;4.00;4.00;;;;;11.25;96.75;98375.09;6285618;20;2754446;-49
2023/04/25 04:54:12;;;;;;;;;4.50;4.50;;;;;11.07;97.69;98388.25;6282702;20;2752382;-51
2023/04/25 04:56:41;;;;;;;;;5.00;4.00;;;;;11.19;96.94;98376.47;6296748;20;1816173;-49
2023/04/25 04:59:09;;;;;;;;;5.00;5.00;;;;;11.07;96.91;98378.34;6315759;20;2749247;-51
2023/04/25 05:01:38;;;;;;;;;5.00;4.00;;;;;11.01;98.52;98384.25;6286744;20;2739890;-52
2023/04/25 05:04:06;;;;;;;;;4.00;4.00;;;;;10.95;98.23;98387.44;6289393;20;2746088;-52
2023/04/25 05:06:35;;;;;;;;;2.50;2.50;;;;;11.04;97.43;98392.03;6302866;20;1803510;-48
2023/04/25 05:09:03;;;;;;;;;3.00;3.00;;;;;11.08;98.47;98390.78;6314792;20;2746137;-58
2023/04/25 05:11:31;;;;;;;;;2.00;2.00;;;;;11.01;97.42;98391.47;6287278;20;2727401;-57
2023/04/25 05:13:59;;;;;;;;;4.00;4.00;;;;;11.15;97.36;98386.59;6288002;20;2748297;-57
2023/04/25 05:16:27;;;;;;;;;3.00;3.00;;;;;11.16;97.42;98390.13;6285145;20;2751436;-55
2023/04/25 05:18:56;;;;;;;;;5.25;5.25;;;;;11.10;97.11;98385.28;6303634;20;1820190;-58
2023/04/25 05:21:25;;;;;;;;;5.00;5.00;;;;;11.12;97.63;98388.72;6316843;20;2740927;-58
2023/04/25 05:23:54;;;;;;;;;5.00;5.00;;;;;11.16;97.33;98391.00;6286345;20;2737382;-56
2023/04/25 05:26:22;;;;;;;;;6.00;3.50;;;;;10.97;97.22;98397.06;6283662;20;2743025;-56
2023/04/25 05:28:50;;;;;;;;;8.00;7.00;;;;;10.96;97.53;98392.69;6283672;20;2733658;-54
2023/04/25 05:31:18;;;;;;;;;5.00;5.00;;;;;11.00;97.74;98398.63;6285763;20;2746202;-56
2023/04/25 05:33:46;;;;;;;;;5.00;4.00;;;;;10.90;98.23;98390.53;6285232;20;2738825;-56
2023/04/25 05:36:19;;;;;;;;;8.00;7.14;;;;;11.01;98.22;98397.69;6325570;20;1804497;-56
2023/04/25 05:38:47;;;;;;;;;7.00;7.00;;;;;10.92;99.07;98401.97;6319197;20;2725284;-58
2023/04/25 05:41:15;;;;;;;;;4.25;4.25;;;;;10.87;99.35;98403.34;6301787;20;1809772;-58
2023/04/25 05:43:46;;;;;;;;;9.50;9.00;;;;;11.05;99.84;98396.41;6316865;20;2761756;-56
2023/04/25 05:46:16;;;;;;;;;6.00;6.00;;;;;10.87;100.00;98404.19;6284248;20;2749318;-57
2023/04/25 05:48:44;;;;;;;;;7.00;6.00;;;;;10.91;100.00;98402.13;6284490;20;2741922;-58
2023/04/25 05:51:12;;;;;;;;;8.00;8.00;;;;;11.04;100.00;98407.31;6286148;20;2736743;-54
2023/04/25 05:53:41;;;;;;;;;7.50;7.50;;;;;10.71;100.00;98406.44;6302801;20;1806612;-58
2023/04/25 05:56:09;;;;;;;;;8.00;8.00;;;;;10.70;100.00;98412.81;6314638;20;2735688;-59
2023/04/25 05:58:36;;;;;;;;;8.00;6.00;;;;;10.77;100.00;98412.16;6282855;20;2745107;-60
2023/04/25 06:01:04;;;;;;;;;8.00;8.00;;;;;10.79;100.00;98411.19;6285973;20;2737819;-56
2023/04/25 06:03:32;;;;;;;;;7.00;7.00;;;;;10.67;100.00;98413.91;6284788;20;2743084;-60
2023/04/25 06:06:00;;;;;;;;;9.00;8.00;;;;;10.83;100.00;98415.31;6285843;20;2750313;-58
2023/04/25 06:08:28;;;;;;;;;4.50;4.50;;;;;10.77;100.00;98409.47;6289053;20;2738212;-58
2023/04/25 06:10:56;;;;;;;;;5.00;5.00;;;;;10.76;100.00;98410.44;6286572;20;2745117;-57
2023/04/25 06:13:24;;;;;;;;;7.00;6.00;;;;;10.78;100.00;98421.06;6285449;20;2737798;-58
2023/04/25 06:15:55;;;;;;;;;6.00;5.86;;;;;10.59;100.00;98418.22;6356673;20;2726325;-60
2023/04/25 06:18:24;;;;;;;;;5.75;4.00;;;;;10.54;100.00;98423.94;6337044;20;1806678;-57
2023/04/25 06:20:52;;;;;;;;;9.00;6.00;;;;;10.57;100.00;98415.63;6316549;20;2738959;-61
2023/04/25 06:23:20;;;;;;;;;7.00;6.50;;;;;10.57;100.00;98436.25;6289583;20;2740923;-59
2023/04/25 06:25:48;;;;;;;;;8.00;5.00;;;;;10.57;100.00;98431.75;6287688;20;2734640;-59
2023/04/25 06:28:15;;;;;;;;;6.00;5.00;;;;;10.60;100.00;98431.47;6288845;20;2745111;-58
2023/04/25 06:30:43;;;;;;;;;5.50;5.50;;;;;10.44;100.00;98436.41;6288969;20;2747354;-58
2023/04/25 06:33:11;;;;;;;;;5.00;5.00;;;;;10.51;100.00;98438.47;6287916;20;2750357;-59
2023/04/25 06:35:39;;;;;;;;;6.00;4.00;;;;;10.59;100.00;98442.38;6286495;20;2746180;-58
2023/04/25 06:38:07;;;;;;;;;6.00;6.00;;;;;10.38;100.00;98440.44;6285469;20;2737800;-58
2023/04/25 06:40:34;;;;;;;;;7.00;6.00;;;;;10.57;100.00;98434.44;6288332;20;2731510;-58
2023/04/25 06:43:03;;;;;;;;;5.75;5.75;;;;;10.49;100.00;98434.19;6303477;20;1812787;-58
2023/04/25 06:45:31;;;;;;;;;5.00;5.00;;;;;10.55;100.00;98441.75;6318820;20;2743022;-57
2023/04/25 06:47:59;;;;;;;;;5.00;5.00;;;;;10.50;100.00;98441.25;6285915;20;2750375;-59
2023/04/25 06:50:27;;;;;;;;;5.00;5.00;;;;;10.54;100.00;98445.41;6286304;20;2746238;-59
2023/04/25 06:52:56;;;;;;;;;8.40;7.00;;;;;10.57;100.00;98447.84;6305200;20;2732678;-59
2023/04/25 06:55:24;;;;;;;;;7.00;5.50;;;;;10.48;100.00;98445.94;6319877;20;2731649;-58
2023/04/25 06:57:52;;;;;;;;;8.00;6.50;;;;;10.60;100.00;98442.22;6310040;20;2742001;-59
2023/04/25 07:00:20;;;;;;;;;5.00;4.50;;;;;10.53;100.00;98447.25;6286328;20;2750266;-59
2023/04/25 07:02:48;;;;;;;;;4.50;4.50;;;;;10.35;100.00;98455.91;6286552;20;2747241;-60
2023/04/25 07:05:16;;;;;;;;;7.00;6.00;;;;;10.33;100.00;98454.22;6288298;20;2728503;-60
2023/04/25 07:07:45;;;;;;;;;7.00;6.50;;;;;10.36;100.00;98457.63;6284833;20;2743089;-60
2023/04/25 07:10:13;;;;;;;;;4.50;4.50;;;;;10.21;100.00;98454.31;6285335;20;2747248;-60
2023/04/25 07:12:41;;;;;;;;;7.00;5.00;;;;;10.27;100.00;98457.41;6285633;20;2734713;-59
2023/04/25 07:15:11;;;;;;;;;4.00;4.00;;;;;10.13;100.00;98457.59;6283538;20;2751572;-56
2023/04/25 07:17:39;;;;;;;;;9.00;6.00;;;;;10.20;100.00;98450.78;6284474;20;2750418;-54
2023/04/25 07:20:09;;;;;;;;;7.00;5.50;;;;;10.18;100.00;98447.38;6286953;20;2729592;-58
2023/04/25 07:22:36;;;;;;;;;6.50;6.00;;;;;10.43;100.00;98450.81;6286406;20;2741974;-58
2023/04/25 07:25:08;;;;;;;;;6.80;6.80;;;;;10.24;100.00;98452.25;6312430;20;2743065;-58
2023/04/25 07:27:36;;;;;;;;;5.50;4.00;;;;;10.20;100.00;98447.25;6318060;20;2756638;-59
2023/04/25 07:30:05;;;;;;;;;7.00;5.50;;;;;10.32;100.00;98452.53;6285489;20;2733084;-59
2023/04/25 07:32:33;;;;;;;;;7.00;7.00;;;;;10.20;100.00;98445.41;6284923;20;2744067;-59
2023/04/25 07:35:01;;;;;;;;;7.00;4.00;;;;;10.26;100.00;98442.22;6286764;20;2744084;-60
2023/04/25 07:37:29;;;;;;;;;7.00;6.00;;;;;10.39;100.00;98455.56;6284930;20;2738912;-60
2023/04/25 07:39:57;;;;;;;;;7.00;7.00;;;;;10.51;100.00;98451.03;6287333;20;2733636;-60
2023/04/25 07:42:25;;;;;;;;;9.00;7.00;;;;;10.52;100.00;98452.72;6318295;20;2732552;-60
2023/04/25 07:44:53;;;;;;;;;4.25;4.25;;;;;10.62;100.00;98459.06;6299448;20;1816214;-60
2023/04/25 07:47:21;;;;;;;;;6.00;6.00;;;;;10.58;100.00;98457.59;6316447;20;2746234;-61
2023/04/25 07:49:49;;;;;;;;;6.00;6.00;;;;;10.63;100.00;98446.50;6272259;20;2743159;-61
2023/04/25 07:52:17;;;;;;;;;8.00;6.50;;;;;10.90;100.00;98448.72;6283164;20;2740925;-61
2023/04/25 07:54:45;;;;;;;;;25.50;25.50;;;;;11.26;100.00;98463.59;6284996;20;2662746;-60
2023/04/25 07:57:16;;;;;;;;;9.00;8.71;;;;;11.47;100.00;98454.72;6326095;20;1796081;-60
2023/04/25 07:59:44;;;;;;;;;9.00;9.00;;;;;11.62;100.00;98456.94;6321257;20;2742965;-61
2023/04/25 08:02:12;;;;;;;;;6.00;6.00;;;;;11.72;100.00;98451.66;6282424;20;2737827;-61
2023/04/25 08:04:40;;;;;;;;;6.00;6.00;;;;;11.95;100.00;98449.66;6283316;20;2740743;-60
2023/04/25 08:07:09;;;;;;;;;6.00;5.00;;;;;12.11;100.00;98453.72;6282840;20;2743109;-61
2023/04/25 08:09:40;;;;;;;;;6.57;6.57;;;;;11.83;100.00;98461.47;6322657;20;1796248;-61
2023/04/25 08:12:08;;;;;;;;;5.00;5.00;;;;;11.99;100.00;98456.50;6313862;20;2745165;-61
2023/04/25 08:14:39;;;;;;;;;6.00;6.00;;;;;12.15;99.39;98465.91;6298225;20;1807907;-61
2023/04/25 08:17:07;;;;;;;;;9.00;7.00;;;;;12.16;99.92;98463.06;6314291;20;2748255;-60
2023/04/25 08:19:35;;;;;;;;;4.50;4.50;;;;;12.14;99.79;98472.28;6282600;20;2748389;-61
2023/04/25 08:22:03;;;;;;;;;5.00;3.00;;;;;12.05;98.50;98461.31;6281926;20;2740941;-61
2023/04/25 08:24:31;;;;;;;;;4.00;4.00;;;;;11.90;97.92;98470.75;6282721;20;2756549;-60
2023/04/25 08:26:58;;;;;;;;;4.00;4.00;;;;;12.09;98.16;98461.94;6279836;20;2745081;-61
2023/04/25 08:29:28;;;;;;;;;5.00;5.00;;;;;12.29;98.42;98466.38;6283662;20;2745076;-61
2023/04/25 08:31:56;;;;;;;;;5.00;5.00;;;;;12.40;97.37;98462.78;6280295;20;2734678;-61
2023/04/25 08:34:25;;;;;;;;;3.50;3.50;;;;;12.46;96.50;98469.44;6280471;20;2744071;-60
2023/04/25 08:36:53;;;;;;;;;6.25;5.00;;;;;12.43;94.74;98470.56;6293390;20;1821218;-60
2023/04/25 08:39:21;;;;;;;;;5.00;5.00;;;;;12.87;93.75;98462.16;6315713;20;2748286;-61
2023/04/25 08:41:50;;;;;;;;;5.00;5.00;;;;;13.10;93.14;98457.38;6281629;20;2743087;-61
2023/04/25 08:44:20;;;;;;;;;7.60;7.00;;;;;13.91;91.42;98462.47;6309264;20;2748181;-60
2023/04/25 08:46:49;;;;;;;;;7.50;6.00;;;;;13.77;88.79;98467.31;6307831;20;2748302;-60
2023/04/25 08:49:18;;;;;;;;;6.00;6.00;;;;;13.41;89.98;98470.78;6280584;20;2740315;-60
2023/04/25 08:51:47;;;;;;;;;6.00;5.00;;;;;13.73;87.56;98468.59;6280789;20;2746113;-60
2023/04/25 08:54:16;;;;;;;;;3.00;3.00;;;;;14.00;87.23;98480.47;6277693;20;2739863;-60
2023/04/25 08:57:03;;;;;;;;;5.00;5.00;;;;;13.81;85.14;98471.41;6279166;20;2737849;-60
2023/04/25 08:59:33;;;;;;;;;9.00;9.00;;;;;14.64;86.16;98471.59;6273603;20;2749293;-59
2023/04/25 09:02:03;;;;;;;;;8.00;8.00;;;;;14.96;85.27;98478.38;6314127;20;2744036;-61
2023/04/25 09:04:32;;;;;;;;;5.50;4.25;;;;;14.48;82.53;98465.94;6298249;20;1805642;-61
2023/04/25 09:07:00;;;;;;;;;9.00;9.00;;;;;15.50;84.23;98473.00;6313473;20;2744024;-60
2023/04/25 09:09:30;;;;;;;;;6.00;4.00;;;;;15.21;82.33;98476.78;6283957;20;2748321;-60
2023/04/25 09:11:59;;;;;;;;;3.50;3.50;;;;;15.29;81.38;98476.84;6286288;20;2746111;-60
2023/04/25 09:14:27;;;;;;;;;3.00;3.00;;;;;15.11;79.63;98484.97;6282308;20;2744033;-60
2023/04/25 09:17:04;;;;;;;;;6.00;5.00;;;;;15.22;79.46;98480.31;6280236;20;2742427;-60
2023/04/25 09:19:37;;;;;;;;;8.00;7.00;;;;;15.80;78.46;98485.28;6285401;20;2748321;-60
2023/04/25 09:22:08;;;;;;;;;5.00;5.00;;;;;15.42;78.42;98481.03;6285306;20;2737780;-60
2023/04/25 09:24:41;;;;;;;;;4.00;4.00;;;;;14.85;77.99;98483.97;6289334;20;2750285;-59
2023/04/25 09:27:22;;;;;;;;;4.00;4.00;;;;;14.56;79.42;98484.13;6332080;20;2462798;-60
2023/04/25 09:30:00;;;;;;;;;4.00;4.00;;;;;14.65;77.19;98484.09;6317502;20;2754528;-60
2023/04/25 09:32:28;;;;;;;;;3.00;3.00;;;;;14.74;78.80;98470.69;6292596;20;2750273;-58
2023/04/25 09:34:57;;;;;;;;;6.00;6.00;;;;;15.08;76.13;98485.25;6287836;20;2734676;-61
2023/04/25 09:37:29;;;;;;;;;5.00;5.00;;;;;15.26;76.14;98485.28;6289301;20;2740867;-61
2023/04/25 09:40:02;;;;;;;;;2.00;2.00;;;;;15.85;74.96;98477.56;6291525;20;2744165;-61
2023/04/25 09:42:31;;;;;;;;;2.00;2.00;;;;;15.63;74.93;98486.13;6288205;20;2742926;-65
2023/04/25 09:45:03;;;;;;;;;3.00;3.00;;;;;15.08;75.50;98481.72;6287751;20;2753610;-62
2023/04/25 09:47:31;;;;;;;;;2.00;2.00;;;;;15.14;73.33;98481.97;6292958;20;2742110;-62
2023/04/25 09:50:00;;;;;;;;;2.00;2.00;;;;;14.86;74.82;98474.88;6291049;20;2744007;-61
2023/04/25 09:52:28;;;;;;;;;1.00;1.00;;;;;15.27;74.35;98481.59;6283723;20;2729441;-62
2023/04/25 09:54:55;;;;;;;;;3.00;3.00;;;;;15.08;75.29;98479.84;6289622;20;2729501;-62
2023/04/25 09:57:25;;;;;;;;;2.00;2.00;;;;;15.63;71.29;98494.25;6286056;20;2742103;-61
2023/04/25 09:59:55;;;;;;;;;2.00;2.00;;;;;15.43;70.40;98483.59;6287102;20;2744155;-62
2023/04/25 10:02:26;;;;;;;;;0.00;0.00;;;;;15.63;71.10;98480.72;6288182;20;2729642;-61
2023/04/25 10:04:56;;;;;;;;;2.00;2.00;;;;;15.67;70.81;98482.97;6288560;20;2744094;-62
2023/04/25 10:07:30;;;;;;;;;1.00;1.00;;;;;15.24;70.30;98476.47;6287910;20;2733638;-62
2023/04/25 10:10:03;;;;;;;;;1.00;1.00;;;;;15.24;70.30;98476.47;6279447;20;2735695;-61
2023/04/25 10:12:33;;;;;;;;;1.50;1.50;;;;;16.33;69.88;98481.59;6289197;20;2726379;-61
2023/04/25 10:15:04;;;;;;;;;4.50;4.00;;;;;16.33;69.88;98481.59;6286095;20;2746193;-61
2023/04/25 10:17:33;;;;;;;;;1.00;1.00;;;;;16.12;69.37;98489.25;6288619;20;2742140;-61
2023/04/25 10:20:10;;;;;;;;;7.00;7.00;;;;;-146.39;100.00;62182.44;6278805;20;2741996;-60
2023/04/25 10:22:53;;;;;;;;;1.00;1.00;;;;;15.50;69.11;98476.53;6288893;20;2454502;-60
2023/04/25 10:25:25;;;;;;;;;4.00;4.00;;;;;15.53;71.70;98487.06;6330628;20;3460687;-60
2023/04/25 10:27:53;;;;;;;;;0.50;0.50;;;;;14.92;72.27;98479.69;6318452;20;2739906;-60
2023/04/25 10:30:21;;;;;;;;;1.50;1.50;;;;;14.32;73.48;98481.94;6286309;20;2746177;-60
2023/04/25 10:32:50;;;;;;;;;1.00;1.00;;;;;-146.39;100.00;62182.44;6288914;20;2739991;-60
2023/04/25 10:35:33;;;;;;;;;1.00;1.00;;;;;-146.39;100.00;62182.44;6287795;20;2733627;-60
2023/04/25 10:38:14;;;;;;;;;0.50;0.50;;;;;-146.39;100.00;62182.44;6285526;20;2728411;-61
2023/04/25 10:40:42;;;;;;;;;1.00;1.00;;;;;15.00;73.92;98482.47;6288099;20;2728446;-60
2023/04/25 10:43:31;;;;;;;;;2.00;2.00;;;;;-146.39;100.00;62182.44;6287624;20;2746089;-60
2023/04/25 10:46:22;;;;;;;;;2.50;2.50;;;;;-146.39;100.00;62182.44;6286325;20;2740893;-61
2023/04/25 10:48:54;;;;;;;;;0.00;0.00;;;;;-146.39;100.00;62182.44;6287170;20;2727311;-60
2023/04/25 10:51:34;;;;;;;;;1.00;1.00;;;;;-146.39;100.00;62182.44;6289538;20;2730613;-60
2023/04/25 10:54:25;;;;;;;;;1.00;1.00;;;;;-146.39;100.00;62182.44;6305653;20;1804562;-60
2023/04/25 10:56:54;;;;;;;;;1.00;1.00;;;;;-146.39;100.00;62182.44;6335207;20;1799279;-60
2023/04/25 10:59:26;;;;;;;;;0.00;0.00;;;;;-146.39;100.00;62182.44;6322184;20;2735727;-61
2023/04/25 11:01:54;;;;;;;;;0.00;0.00;;;;;-146.39;100.00;62182.44;6285830;20;2727384;-60
2023/04/25 11:04:31;;;;;;;;;0.00;0.00;;;;;-146.39;100.00;62182.44;6285695;20;2730536;-61
2023/04/25 11:07:03;;;;;;;;;0.75;0.75;;;;;-146.39;100.00;62182.44;6304693;20;1802411;-60
2023/04/25 11:09:38;;;;;;;;;1.00;1.00;;;;;-146.39;100.00;62182.44;6334498;20;1802605;-60
2023/04/25 11:12:11;;;;;;;;;1.00;1.00;;;;;15.00;73.92;98482.47;6318377;20;2729693;-60
2023/04/25 11:14:39;;;;;;;;;1.00;1.00;;;;;13.71;74.57;98511.03;6287844;20;2459715;-59
2023/04/25 11:17:29;;;;;;;;;0.50;0.50;;;;;14.02;73.54;98516.25;6302272;20;1802553;-57
2023/04/25 11:19:57;;;;;;;;;1.00;1.00;;;;;13.70;72.65;98520.16;6318878;20;2724370;-60